createdAt,value
2018-02-02T00:02:21.871Z,94.67
2018-02-02T00:04:47.638Z,94.94
2018-02-02T00:07:13.738Z,94.97
2018-02-02T00:09:39.486Z,95.05
2018-02-02T00:12:05.351Z,95.01
2018-02-02T00:14:31.402Z,95.23
2018-02-02T00:16:57.415Z,95.21
2018-02-02T00:19:23.185Z,95.02
2018-02-02T00:21:48.976Z,95.05
2018-02-02T00:24:14.735Z,95.22
2018-02-02T00:26:40.512Z,94.96
2018-02-02T00:29:06.266Z,94.93
2018-02-02T00:31:32.033Z,94.87
2018-02-02T00:33:58.086Z,94.90
2018-02-02T00:36:23.891Z,94.62
2018-02-02T00:38:49.954Z,94.79
2018-02-02T00:41:15.731Z,94.50
2018-02-02T00:43:41.896Z,94.09
2018-02-02T00:46:07.659Z,94.21
2018-02-02T00:48:33.445Z,94.10
2018-02-02T00:51:05.288Z,94.18
2018-02-02T00:53:31.058Z,94.18
2018-02-02T00:55:56.812Z,94.01
2018-02-02T00:58:22.682Z,94.48
2018-02-02T01:00:48.449Z,94.26
2018-02-02T01:03:14.211Z,94.23
2018-02-02T01:05:39.979Z,93.81
2018-02-02T01:08:05.756Z,93.96
2018-02-02T01:10:31.519Z,94.00
2018-02-02T01:12:57.295Z,94.24
2018-02-02T01:15:23.050Z,93.87
2018-02-02T01:17:48.823Z,93.82
2018-02-02T01:20:14.586Z,93.94
2018-02-02T01:22:40.362Z,93.98
2018-02-02T01:25:06.122Z,94.20
2018-02-02T01:27:31.878Z,94.00
2018-02-02T01:29:57.651Z,93.94
2018-02-02T01:32:23.420Z,93.63
2018-02-02T01:34:49.195Z,93.46
2018-02-02T01:37:15.586Z,93.29
2018-02-02T01:39:41.351Z,93.53
2018-02-02T01:42:07.117Z,93.32
2018-02-02T01:44:32.911Z,93.77
2018-02-02T01:46:58.668Z,93.62
2018-02-02T01:49:24.447Z,93.43
2018-02-02T01:51:50.215Z,93.71
2018-02-02T01:54:15.985Z,93.45
2018-02-02T01:56:41.799Z,93.39
2018-02-02T01:59:07.574Z,93.35
2018-02-02T02:01:33.358Z,93.47
2018-02-02T02:03:59.143Z,93.27
2018-02-02T02:06:24.896Z,93.59
2018-02-02T02:08:50.666Z,93.27
2018-02-02T02:11:16.435Z,93.33
2018-02-02T02:13:42.213Z,93.77
2018-02-02T02:16:07.995Z,93.67
2018-02-02T02:18:33.756Z,93.88
2018-02-02T02:20:59.532Z,93.71
2018-02-02T02:23:25.299Z,94.29
2018-02-02T02:25:51.070Z,94.01
2018-02-02T02:28:18.406Z,93.95
2018-02-02T02:30:44.247Z,94.27
2018-02-02T02:33:10.019Z,94.00
2018-02-02T02:35:35.792Z,94.10
2018-02-02T02:38:01.534Z,94.08
2018-02-02T02:40:27.302Z,94.16
2018-02-02T02:42:53.058Z,94.21
2018-02-02T02:45:18.836Z,94.17
2018-02-02T02:47:44.588Z,94.35
2018-02-02T02:50:10.355Z,94.25
2018-02-02T02:52:36.141Z,94.25
2018-02-02T02:55:01.903Z,94.19
2018-02-02T02:57:27.682Z,94.36
2018-02-02T02:59:53.506Z,94.66
2018-02-02T03:02:19.295Z,94.60
2018-02-02T03:04:45.047Z,94.71
2018-02-02T03:07:10.823Z,94.48
2018-02-02T03:09:36.586Z,94.65
2018-02-02T03:12:02.362Z,94.43
2018-02-02T03:14:28.114Z,94.61
2018-02-02T03:16:53.873Z,94.61
2018-02-02T03:19:19.644Z,94.65
2018-02-02T03:21:45.422Z,94.54
2018-02-02T03:24:11.169Z,94.55
2018-02-02T03:26:36.950Z,94.64
2018-02-02T03:29:02.711Z,94.60
2018-02-02T03:31:28.490Z,94.64
2018-02-02T03:33:54.262Z,94.73
2018-02-02T03:36:20.046Z,94.65
2018-02-02T03:38:45.804Z,94.93
2018-02-02T03:41:11.576Z,94.70
2018-02-02T03:43:37.330Z,94.88
2018-02-02T03:46:03.091Z,94.92
2018-02-02T03:48:28.872Z,94.92
2018-02-02T03:50:54.650Z,94.77
2018-02-02T03:53:20.421Z,95.08
2018-02-02T03:55:46.183Z,95.05
2018-02-02T03:58:11.946Z,95.01
2018-02-02T04:00:37.735Z,94.70
2018-02-02T04:03:03.507Z,94.81
2018-02-02T04:05:29.274Z,94.88
2018-02-02T04:07:55.060Z,95.02
2018-02-02T04:10:20.815Z,94.83
2018-02-02T04:12:46.600Z,94.60
2018-02-02T04:15:12.351Z,94.77
2018-02-02T04:17:38.127Z,94.67
2018-02-02T04:20:03.901Z,94.62
2018-02-02T04:22:29.666Z,94.43
2018-02-02T04:24:55.430Z,94.17
2018-02-02T04:27:21.232Z,94.37
2018-02-02T04:29:46.998Z,94.17
2018-02-02T04:32:12.761Z,94.04
2018-02-02T04:34:38.547Z,94.02
2018-02-02T04:37:04.310Z,94.08
2018-02-02T04:39:30.090Z,93.72
2018-02-02T04:41:55.848Z,93.76
2018-02-02T04:44:21.619Z,93.52
2018-02-02T04:46:47.365Z,93.48
2018-02-02T04:49:13.142Z,93.42
2018-02-02T04:51:38.900Z,93.56
2018-02-02T04:54:04.672Z,93.21
2018-02-02T04:56:30.435Z,93.18
2018-02-02T04:58:56.221Z,93.56
2018-02-02T05:01:21.976Z,93.43
2018-02-02T05:03:47.755Z,93.44
2018-02-02T05:06:13.658Z,93.46
2018-02-02T05:08:39.424Z,93.88
2018-02-02T05:11:05.179Z,93.88
2018-02-02T05:13:30.939Z,93.74
2018-02-02T05:15:56.699Z,93.75
2018-02-02T05:18:22.495Z,93.91
2018-02-02T05:20:48.207Z,93.99
2018-02-02T05:23:13.959Z,93.78
2018-02-02T05:25:39.710Z,93.89
2018-02-02T05:28:05.459Z,93.87
2018-02-02T05:30:31.222Z,93.94
2018-02-02T05:32:56.970Z,93.92
2018-02-02T05:35:22.738Z,93.80
2018-02-02T05:37:48.500Z,93.96
2018-02-02T05:40:14.246Z,93.95
2018-02-02T05:42:39.989Z,93.79
2018-02-02T05:45:05.743Z,93.80
2018-02-02T05:47:31.506Z,93.77
2018-02-02T05:49:57.246Z,93.83
2018-02-02T05:52:22.997Z,93.73
2018-02-02T05:54:48.766Z,93.80
2018-02-02T05:57:14.512Z,93.35
2018-02-02T05:59:40.283Z,93.46
2018-02-02T06:02:06.061Z,93.39
2018-02-02T06:04:31.803Z,93.40
2018-02-02T06:06:57.556Z,93.45
2018-02-02T06:09:23.310Z,93.13
2018-02-02T06:11:49.088Z,93.01
2018-02-02T06:14:14.830Z,93.00
2018-02-02T06:16:40.594Z,92.58
2018-02-02T06:19:18.723Z,92.58
2018-02-02T06:21:44.474Z,92.86
2018-02-02T06:24:10.214Z,92.50
2018-02-02T06:26:35.975Z,92.72
2018-02-02T06:29:01.737Z,92.14
2018-02-02T06:31:27.502Z,92.30
2018-02-02T06:33:53.268Z,92.34
2018-02-02T06:36:19.023Z,92.27
2018-02-02T06:38:44.775Z,92.11
2018-02-02T06:41:10.544Z,92.31
2018-02-02T06:43:36.291Z,92.49
2018-02-02T06:46:02.059Z,92.46
2018-02-02T06:48:27.801Z,92.18
2018-02-02T06:50:53.542Z,92.02
2018-02-02T06:53:19.290Z,92.30
2018-02-02T06:55:45.035Z,92.22
2018-02-02T06:58:10.786Z,92.33
2018-02-02T07:00:36.546Z,92.56
2018-02-02T07:03:02.305Z,92.61
2018-02-02T07:05:28.055Z,92.57
2018-02-02T07:07:53.806Z,92.54
2018-02-02T07:10:19.554Z,92.41
2018-02-02T07:12:45.318Z,92.36
2018-02-02T07:15:11.078Z,92.47
2018-02-02T07:17:36.830Z,92.30
2018-02-02T07:20:02.579Z,92.51
2018-02-02T07:22:28.340Z,92.57
2018-02-02T07:24:54.098Z,92.70
2018-02-02T07:27:19.842Z,92.59
2018-02-02T07:29:45.586Z,93.00
2018-02-02T07:32:11.323Z,92.95
2018-02-02T07:34:37.095Z,92.63
2018-02-02T07:37:02.839Z,92.81
2018-02-02T07:39:28.598Z,92.75
2018-02-02T07:41:54.343Z,93.02
2018-02-02T07:44:20.102Z,92.94
2018-02-02T07:46:45.854Z,93.25
2018-02-02T07:49:11.618Z,93.21
2018-02-02T07:51:37.372Z,93.01
2018-02-02T07:54:03.135Z,92.85
2018-02-02T07:56:28.896Z,92.80
2018-02-02T07:58:54.650Z,92.75
2018-02-02T08:01:20.408Z,92.73
2018-02-02T08:03:46.178Z,92.71
2018-02-02T08:06:11.931Z,92.84
2018-02-02T08:08:37.682Z,92.76
2018-02-02T08:11:03.438Z,93.10
2018-02-02T08:13:29.194Z,93.12
2018-02-02T08:15:54.935Z,93.27
2018-02-02T08:18:20.683Z,93.07
2018-02-02T08:20:46.435Z,93.31
2018-02-02T08:23:12.188Z,93.30
2018-02-02T08:25:37.935Z,93.39
2018-02-02T08:28:03.682Z,93.10
2018-02-02T08:30:29.446Z,93.16
2018-02-02T08:32:55.198Z,93.15
2018-02-02T08:35:20.957Z,93.18
2018-02-02T08:37:46.690Z,93.27
2018-02-02T08:40:12.457Z,93.38
2018-02-02T08:42:38.219Z,93.33
2018-02-02T08:45:03.978Z,93.61
2018-02-02T08:47:29.730Z,93.59
2018-02-02T08:49:55.474Z,93.65
2018-02-02T08:52:21.223Z,93.71
2018-02-02T08:54:46.984Z,93.77
2018-02-02T08:57:12.739Z,93.89
2018-02-02T08:59:38.484Z,93.91
2018-02-02T09:02:06.067Z,94.16
2018-02-02T09:04:31.810Z,94.27
2018-02-02T09:06:57.567Z,94.30
2018-02-02T09:09:23.312Z,94.37
2018-02-02T09:11:49.090Z,94.51
2018-02-02T09:14:14.848Z,94.49
2018-02-02T09:16:40.607Z,94.63
2018-02-02T09:19:06.359Z,94.40
2018-02-02T09:21:32.112Z,94.44
2018-02-02T09:23:57.870Z,94.60
2018-02-02T09:26:23.638Z,94.76
2018-02-02T09:28:49.403Z,94.82
2018-02-02T09:31:15.173Z,94.57
2018-02-02T09:33:40.958Z,94.50
2018-02-02T09:36:06.733Z,94.37
2018-02-02T09:38:32.495Z,94.32
2018-02-02T09:40:58.242Z,93.95
2018-02-02T09:43:23.994Z,94.12
2018-02-02T09:45:49.755Z,94.46
2018-02-02T09:48:15.519Z,94.60
2018-02-02T09:50:41.274Z,94.40
2018-02-02T09:53:07.030Z,94.51
2018-02-02T09:55:32.791Z,94.26
2018-02-02T09:57:58.554Z,94.47
2018-02-02T10:00:24.290Z,94.35
2018-02-02T10:02:50.042Z,94.28
2018-02-02T10:05:15.786Z,94.23
2018-02-02T10:07:41.535Z,94.14
2018-02-02T10:10:07.286Z,93.83
2018-02-02T10:12:33.051Z,93.76
2018-02-02T10:14:58.818Z,93.89
2018-02-02T10:17:24.591Z,93.73
2018-02-02T10:19:50.346Z,93.11
2018-02-02T10:22:16.094Z,92.96
2018-02-02T10:24:41.859Z,92.88
2018-02-02T10:27:07.609Z,92.89
2018-02-02T10:29:33.374Z,92.59
2018-02-02T10:31:59.123Z,92.35
2018-02-02T10:34:24.895Z,91.89
2018-02-02T10:36:50.646Z,91.83
2018-02-02T10:39:16.417Z,91.93
2018-02-02T10:41:42.184Z,91.70
2018-02-02T10:44:07.955Z,91.42
2018-02-02T10:46:33.709Z,91.43
2018-02-02T10:48:59.466Z,91.40
2018-02-02T10:51:25.218Z,91.66
2018-02-02T10:53:50.966Z,91.19
2018-02-02T10:56:16.714Z,90.91
2018-02-02T10:58:42.475Z,90.96
2018-02-02T11:01:14.437Z,90.51
2018-02-02T11:03:44.079Z,90.43
2018-02-02T11:06:09.814Z,90.91
2018-02-02T11:08:35.546Z,90.16
2018-02-02T11:11:01.307Z,90.14
2018-02-02T11:13:27.067Z,90.34
2018-02-02T11:15:52.830Z,90.19
2018-02-02T11:18:18.597Z,90.42
2018-02-02T11:20:44.372Z,89.57
2018-02-02T11:23:10.122Z,90.03
2018-02-02T11:25:35.884Z,89.81
2018-02-02T11:28:01.643Z,89.70
2018-02-02T11:30:27.410Z,89.43
2018-02-02T11:32:53.158Z,89.82
2018-02-02T11:35:18.932Z,89.31
2018-02-02T11:37:44.712Z,89.42
2018-02-02T11:40:10.470Z,89.30
2018-02-02T11:42:36.248Z,88.78
2018-02-02T11:45:01.991Z,89.05
2018-02-02T11:47:27.734Z,88.82
2018-02-02T11:49:53.483Z,89.33
2018-02-02T11:52:19.213Z,89.56
2018-02-02T11:54:44.966Z,90.16
2018-02-02T11:57:10.715Z,90.48
2018-02-02T11:59:36.465Z,90.93
2018-02-02T12:02:02.207Z,91.75
2018-02-02T12:04:27.947Z,91.17
2018-02-02T12:06:53.712Z,91.25
2018-02-02T12:09:19.481Z,91.49
2018-02-02T12:11:45.255Z,91.53
2018-02-02T12:14:11.002Z,91.60
2018-02-02T12:16:36.758Z,91.45
2018-02-02T12:19:02.516Z,91.49
2018-02-02T12:21:34.500Z,91.64
2018-02-02T12:24:02.047Z,91.49
2018-02-02T12:29:47.150Z,91.74
2018-02-02T12:35:28.545Z,91.13
2018-02-02T12:37:54.309Z,91.23
2018-02-02T12:40:20.092Z,90.96
2018-02-02T12:42:45.834Z,91.74
2018-02-02T12:45:11.587Z,91.53
2018-02-02T12:47:37.331Z,91.22
2018-02-02T12:50:05.863Z,91.20
2018-02-02T12:52:31.673Z,90.54
2018-02-02T12:54:57.410Z,90.99
2018-02-02T12:57:23.174Z,90.80
2018-02-02T12:59:48.926Z,91.16
2018-02-02T13:02:14.670Z,90.59
2018-02-02T13:04:40.421Z,90.21
2018-02-02T13:07:06.166Z,90.81
2018-02-02T13:09:31.910Z,90.52
2018-02-02T13:11:57.671Z,91.04
2018-02-02T13:14:23.420Z,91.04
2018-02-02T13:16:49.166Z,91.08
2018-02-02T13:19:14.912Z,91.34
2018-02-02T13:21:40.678Z,91.70
2018-02-02T13:24:06.427Z,91.74
2018-02-02T13:26:32.179Z,92.20
2018-02-02T13:28:57.943Z,92.76
2018-02-02T13:31:23.683Z,93.08
2018-02-02T13:33:49.435Z,93.08
2018-02-02T13:36:15.174Z,93.48
2018-02-02T13:38:40.927Z,93.73
2018-02-02T13:41:06.690Z,93.83
2018-02-02T13:43:32.454Z,93.72
2018-02-02T13:45:58.190Z,93.33
2018-02-02T13:48:23.987Z,93.08
2018-02-02T13:50:49.714Z,92.98
2018-02-02T13:53:15.458Z,93.13
2018-02-02T13:55:41.202Z,93.65
2018-02-02T13:58:06.976Z,93.46
2018-02-02T14:00:32.731Z,93.61
2018-02-02T14:02:58.495Z,93.38
2018-02-02T14:05:24.232Z,93.28
2018-02-02T14:07:50.003Z,93.46
2018-02-02T14:10:15.738Z,93.01
2018-02-02T14:12:41.498Z,93.26
2018-02-02T14:15:07.270Z,93.03
2018-02-02T14:17:33.031Z,93.43
2018-02-02T14:19:58.780Z,93.15
2018-02-02T14:22:24.539Z,93.12
2018-02-02T14:24:50.298Z,92.97
2018-02-02T14:27:16.048Z,93.04
2018-02-02T14:29:41.789Z,92.88
2018-02-02T14:32:07.542Z,92.93
2018-02-02T14:34:33.323Z,93.14
2018-02-02T14:36:59.092Z,93.66
2018-02-02T14:39:24.858Z,92.50
2018-02-02T14:41:50.634Z,92.50
2018-02-02T14:44:16.452Z,91.86
2018-02-02T14:46:42.186Z,91.15
2018-02-02T14:49:07.961Z,91.88
2018-02-02T14:51:33.725Z,91.91
2018-02-02T14:53:59.491Z,92.38
2018-02-02T14:56:25.255Z,91.84
2018-02-02T14:58:51.022Z,91.53
2018-02-02T15:01:16.791Z,91.67
2018-02-02T15:03:42.959Z,91.70
2018-02-02T15:06:08.909Z,91.75
2018-02-02T15:08:34.890Z,91.24
2018-02-02T15:11:00.746Z,91.28
2018-02-02T15:13:26.552Z,91.92
2018-02-02T15:15:52.326Z,92.55
2018-02-02T15:18:18.086Z,91.63
2018-02-02T15:20:43.871Z,92.48
2018-02-02T15:23:15.623Z,92.71
2018-02-02T15:25:41.403Z,92.65
2018-02-02T15:28:07.155Z,93.26
2018-02-02T15:30:32.944Z,93.60
2018-02-02T15:32:58.711Z,93.03
2018-02-02T15:35:24.494Z,93.40
2018-02-02T15:37:50.253Z,93.30
2018-02-02T15:40:16.052Z,92.89
2018-02-02T15:42:41.801Z,93.11
2018-02-02T15:45:07.579Z,93.33
2018-02-02T15:47:33.343Z,93.51
2018-02-02T15:49:59.099Z,93.35
2018-02-02T15:52:24.876Z,93.48
2018-02-02T15:54:50.634Z,93.55
2018-02-02T15:57:16.403Z,93.04
2018-02-02T15:59:42.180Z,93.29
2018-02-02T16:02:07.945Z,93.54
2018-02-02T16:04:33.716Z,93.78
2018-02-02T16:06:59.483Z,93.93
2018-02-02T16:09:25.241Z,93.71
2018-02-02T16:11:51.011Z,93.59
2018-02-02T16:14:16.760Z,93.34
2018-02-02T16:16:42.526Z,93.62
2018-02-02T16:19:08.274Z,93.64
2018-02-02T16:21:34.027Z,93.80
2018-02-02T16:23:59.782Z,93.89
2018-02-02T16:26:25.549Z,94.08
2018-02-02T16:28:51.291Z,94.12
2018-02-02T16:31:17.047Z,94.20
2018-02-02T16:33:42.807Z,94.22
2018-02-02T16:36:08.566Z,94.16
2018-02-02T16:38:34.351Z,94.30
2018-02-02T16:41:00.149Z,94.57
2018-02-02T16:43:25.935Z,94.72
2018-02-02T16:45:51.745Z,94.83
2018-02-02T16:48:17.502Z,94.74
2018-02-02T16:50:43.258Z,95.02
2018-02-02T16:53:09.023Z,95.10
2018-02-02T16:55:34.782Z,95.17
2018-02-02T16:58:00.554Z,95.08
2018-02-02T17:00:26.347Z,95.09
2018-02-02T17:02:52.155Z,95.13
2018-02-02T17:05:17.918Z,95.25
2018-02-02T17:07:43.699Z,95.15
2018-02-02T17:10:09.459Z,95.33
2018-02-02T17:12:35.242Z,95.45
2018-02-02T17:15:00.974Z,95.39
2018-02-02T17:17:26.722Z,95.26
2018-02-02T17:19:52.489Z,95.28
2018-02-02T17:22:18.244Z,94.77
2018-02-02T17:24:44.046Z,95.25
2018-02-02T17:27:09.835Z,95.42
2018-02-02T17:29:35.595Z,95.63
2018-02-02T17:32:01.429Z,95.52
2018-02-02T17:34:27.222Z,95.43
2018-02-02T17:36:53.003Z,95.42
2018-02-02T17:39:18.772Z,95.42
2018-02-02T17:41:44.530Z,95.02
2018-02-02T17:44:10.298Z,95.13
2018-02-02T17:46:36.091Z,95.03
2018-02-02T17:49:01.888Z,95.01
2018-02-02T17:51:27.655Z,95.00
2018-02-02T17:53:53.423Z,95.24
2018-02-02T17:56:19.190Z,94.77
2018-02-02T17:58:44.975Z,94.41
2018-02-02T18:01:16.763Z,94.56
2018-02-02T18:03:42.582Z,94.70
2018-02-02T18:06:08.341Z,94.94
2018-02-02T18:08:34.200Z,94.57
2018-02-02T18:10:59.965Z,94.74
2018-02-02T18:13:25.759Z,95.17
2018-02-02T18:15:51.536Z,95.33
2018-02-02T18:18:17.344Z,95.37
2018-02-02T18:20:43.116Z,95.20
2018-02-02T18:23:08.866Z,95.38
2018-02-02T18:25:34.630Z,95.23
2018-02-02T18:28:00.383Z,95.26
2018-02-02T18:30:26.187Z,95.29
2018-02-02T18:32:51.947Z,95.21
2018-02-02T18:35:17.731Z,95.31
2018-02-02T18:37:43.481Z,95.29
2018-02-02T18:40:09.242Z,95.40
2018-02-02T18:42:34.996Z,95.44
2018-02-02T18:45:00.774Z,95.15
2018-02-02T18:47:26.527Z,95.17
2018-02-02T18:49:52.318Z,95.32
2018-02-02T18:52:18.063Z,95.42
2018-02-02T18:54:43.810Z,95.11
2018-02-02T18:57:09.566Z,94.94
2018-02-02T18:59:35.335Z,94.94
2018-02-02T19:02:01.091Z,94.76
2018-02-02T19:04:26.899Z,94.78
2018-02-02T19:06:52.654Z,94.43
2018-02-02T19:09:18.438Z,94.71
2018-02-02T19:11:44.224Z,94.60
2018-02-02T19:14:09.975Z,94.65
2018-02-02T19:16:35.742Z,94.14
2018-02-02T19:19:01.508Z,93.75
2018-02-02T19:21:27.270Z,93.33
2018-02-02T19:23:53.031Z,93.13
2018-02-02T19:26:18.811Z,93.14
2018-02-02T19:28:44.561Z,93.14
2018-02-02T19:31:10.319Z,93.32
2018-02-02T19:33:36.106Z,93.32
2018-02-02T19:36:01.864Z,93.86
2018-02-02T19:38:27.635Z,93.80
2018-02-02T19:40:53.408Z,94.50
2018-02-02T19:43:19.177Z,94.77
2018-02-02T19:45:44.951Z,95.24
2018-02-02T19:48:10.722Z,95.50
2018-02-02T19:50:36.483Z,95.53
2018-02-02T19:53:02.260Z,95.58
2018-02-02T19:55:28.050Z,95.10
2018-02-02T19:57:55.644Z,94.80
2018-02-02T20:00:21.427Z,94.96
2018-02-02T20:02:47.186Z,95.12
2018-02-02T20:05:12.970Z,95.24
2018-02-02T20:07:38.751Z,95.07
2018-02-02T20:10:04.539Z,95.02
2018-02-02T20:12:30.290Z,94.63
2018-02-02T20:14:56.054Z,94.48
2018-02-02T20:17:21.830Z,94.39
2018-02-02T20:19:47.578Z,94.49
2018-02-02T20:22:13.362Z,94.37
2018-02-02T20:24:39.122Z,94.22
2018-02-02T20:27:04.892Z,94.16
2018-02-02T20:29:30.650Z,94.06
2018-02-02T20:31:56.442Z,93.76
2018-02-02T20:34:22.198Z,93.98
2018-02-02T20:36:47.959Z,94.21
2018-02-02T20:39:13.715Z,94.04
2018-02-02T20:41:39.480Z,93.79
2018-02-02T20:44:05.224Z,93.78
2018-02-02T20:46:30.997Z,93.86
2018-02-02T20:48:56.755Z,93.69
2018-02-02T20:51:22.531Z,93.86
2018-02-02T20:53:48.332Z,93.94
2018-02-02T20:56:14.102Z,93.50
2018-02-02T20:58:39.872Z,93.37
2018-02-02T21:01:05.636Z,93.33
2018-02-02T21:03:31.394Z,93.37
2018-02-02T21:05:57.147Z,93.25
2018-02-02T21:08:22.906Z,93.46
2018-02-02T21:10:48.666Z,93.44
2018-02-02T21:13:14.457Z,93.53
2018-02-02T21:15:40.204Z,93.83
2018-02-02T21:18:05.983Z,93.84
2018-02-02T21:20:31.733Z,93.65
2018-02-02T21:22:57.521Z,93.57
2018-02-02T21:25:23.286Z,93.37
2018-02-02T21:27:49.068Z,93.23
2018-02-02T21:30:14.850Z,93.32
2018-02-02T21:32:40.618Z,93.31
2018-02-02T21:35:06.385Z,93.18
2018-02-02T21:37:32.154Z,93.24
2018-02-02T21:39:57.911Z,93.15
2018-02-02T21:42:23.683Z,93.18
2018-02-02T21:44:49.427Z,93.07
2018-02-02T21:47:15.198Z,93.19
2018-02-02T21:49:40.967Z,92.88
2018-02-02T21:52:06.723Z,92.63
2018-02-02T21:54:32.465Z,92.73
2018-02-02T21:56:58.222Z,92.65
2018-02-02T21:59:23.985Z,92.54
2018-02-02T22:01:49.751Z,92.45
2018-02-02T22:04:15.512Z,92.92
2018-02-02T22:06:41.263Z,93.36
2018-02-02T22:09:07.046Z,93.70
2018-02-02T22:11:32.795Z,93.79
2018-02-02T22:13:58.558Z,93.76
2018-02-02T22:16:24.316Z,93.74
2018-02-02T22:18:50.086Z,93.68
2018-02-02T22:21:15.830Z,93.46
2018-02-02T22:23:41.597Z,93.08
2018-02-02T22:26:07.363Z,92.78
2018-02-02T22:28:33.122Z,92.46
2018-02-02T22:30:58.899Z,92.19
2018-02-02T22:33:24.665Z,91.52
2018-02-02T22:35:50.430Z,92.12
2018-02-02T22:38:16.182Z,92.32
2018-02-02T22:40:41.979Z,91.88
2018-02-02T22:43:07.730Z,92.14
2018-02-02T22:45:33.502Z,91.96
2018-02-02T22:47:59.321Z,92.00
2018-02-02T22:50:25.094Z,92.12
2018-02-02T22:52:50.862Z,92.05
2018-02-02T22:55:16.683Z,91.94
2018-02-02T22:57:42.457Z,91.93
2018-02-02T23:00:08.267Z,91.79
2018-02-02T23:02:34.299Z,91.65
2018-02-02T23:05:00.091Z,91.84
2018-02-02T23:07:25.868Z,92.23
2018-02-02T23:09:51.619Z,92.20
2018-02-02T23:12:17.400Z,91.81
2018-02-02T23:14:43.394Z,92.23
2018-02-02T23:17:09.202Z,91.82
2018-02-02T23:19:34.979Z,92.15
2018-02-02T23:22:00.744Z,92.46
2018-02-02T23:24:26.507Z,92.90
2018-02-02T23:26:52.281Z,93.39
2018-02-02T23:29:18.040Z,93.57
2018-02-02T23:31:43.926Z,93.36
2018-02-02T23:34:09.711Z,93.33
2018-02-02T23:36:35.484Z,92.98
2018-02-02T23:39:02.057Z,93.07
2018-02-02T23:41:27.858Z,92.44
2018-02-02T23:43:53.610Z,92.28
2018-02-02T23:46:19.370Z,92.33
2018-02-02T23:48:45.139Z,92.36
2018-02-02T23:51:10.919Z,92.45
2018-02-02T23:53:36.855Z,91.99
2018-02-02T23:56:02.668Z,91.62
2018-02-02T23:58:28.445Z,91.18
